Latest Weather Observations for Viewbank

IDV60901

Issued at 6:51 pm EDT Sunday 28 February 2021 (issued every 10 minutes, with the page automatically refreshed every 10 minutes)

About weather observations | Map of Melbourne area stations | Latest observations for Melbourne area | Other Formats
Station Details ID: 086068 Name: VIEWBANK Lat: -37.74 Lon: 145.10 Height: 66.1 m
Data from the previous 72 hours. | See also: Recent months at Viewbank
Date/Time
EDT
Temp
°C
App
Temp
°C
Dew
Point
°C
Rel
Hum
%
Delta-T
°C
Wind Press
QNH
hPa
Press
MSL
hPa
Rain since
9am
mm
Dir  Spd
km/h
Gust
km/h
Spd
kts
Gust
kts
28/06:30pm 26.9 25.6 11.4 38 8.9 SW 9 17 5 9 1008.0 1007.8 0.0
28/06:00pm 28.6 27.2 10.8 33 10.2 SSW 9 19 5 10 1007.9 1007.7 0.0
28/05:30pm 29.2 27.7 9.3 29 11.1 SSW 7 13 4 7 1008.1 1007.9 0.0
28/05:00pm 29.1 27.6 9.3 29 11.1 SE 7 13 4 7 1008.3 1008.1 0.0
28/04:30pm 29.3 28.1 9.4 29 11.1 SSE 6 13 3 7 1008.5 1008.3 0.0
28/04:00pm 28.8 27.3 9.0 29 11.0 S 7 15 4 8 1008.8 1008.6 0.0
28/03:30pm 28.9 27.4 9.1 29 11.0 S 7 13 4 7 1009.3 1009.1 0.0
28/03:00pm 27.8 25.8 8.6 30 10.5 SSW 9 17 5 9 1009.8 1009.6 0.0
28/02:30pm 27.8 25.9 9.1 31 10.3 S 9 15 5 8 1010.5 1010.3 0.0
28/02:00pm 27.0 24.7 8.9 32 9.9 SSW 11 19 6 10 1010.8 1010.6 0.0
28/01:30pm 26.1 23.6 8.1 32 9.7 WSW 11 19 6 10 1011.3 1011.1 0.0
28/01:00pm 26.1 24.3 9.5 35 9.2 SW 9 13 5 7 1011.7 1011.5 0.0
28/12:30pm 25.4 24.1 10.1 38 8.5 SSE 7 13 4 7 1012.1 1011.9 0.0
28/12:00pm 24.4 23.5 11.4 44 7.3 ESE 7 13 4 7 1012.4 1012.1 0.0
28/11:30am 22.0 21.2 11.7 52 5.8 ENE 7 15 4 8 1012.6 1012.3 0.0
28/11:00am 20.3 19.6 12.0 59 4.6 ESE 7 11 4 6 1012.8 1012.5 0.0
28/10:30am 18.1 17.4 12.1 68 3.3 E 7 13 4 7 1013.1 1012.8 0.0
28/10:00am 16.0 14.9 11.8 76 2.3 E 9 15 5 8 1013.2 1012.9 0.0
28/09:30am 14.5 13.9 11.7 83 1.5 S 6 9 3 5 1013.4 1013.1 0.0
28/09:00am 13.4 12.9 12.0 91 0.8 SSE 6 7 3 4 1013.6 1013.3 0.0
28/08:30am 11.0 10.1 10.8 99 0.1 SSE 6 7 3 4 1013.6 1013.3 0.0
28/08:00am 10.2 9.9 10.2 100 0.0 SSE 2 6 1 3 1013.5 1013.2 0.0
28/07:30am 8.5 7.8 8.5 100 0.0 SSE 2 7 1 4 1013.3 1013.0 0.0
28/07:00am 8.1 7.7 8.1 100 0.0 CALM 0 0 0 0 1013.0 1012.7 0.0
28/06:30am 8.2 7.0 8.2 100 0.0 SSE 4 7 2 4 1013.0 1012.7 0.0
28/06:00am 8.4 7.3 8.4 100 0.0 SSE 4 7 2 4 1013.0 1012.7 0.0
28/05:30am 8.6 6.6 8.6 100 0.0 SSE 9 11 5 6 1012.6 1012.3 0.0
28/05:00am 8.9 7.9 8.9 100 0.0 SSE 4 7 2 4 1012.8 1012.5 0.0
28/04:30am 9.0 7.6 9.0 100 0.0 SSE 6 7 3 4 1013.0 1012.7 0.0
28/04:00am 9.5 9.4 9.5 100 0.0 CALM 0 0 0 0 1013.1 1012.8 0.0
28/03:30am 9.8 9.8 9.7 99 0.1 CALM 0 0 0 0 1012.9 1012.6 0.0
28/03:00am 10.3 10.4 10.1 99 0.1 CALM 0 0 0 0 1012.7 1012.4 0.0
28/02:30am 10.4 9.4 10.2 99 0.1 SSE 6 9 3 5 1013.0 1012.7 0.0
28/02:00am 10.7 10.1 10.5 99 0.1 SSE 4 7 2 4 1013.1 1012.8 0.0
28/01:30am 11.2 11.2 11.0 99 0.1 SSE 2 7 1 4 1013.7 1013.4 0.0
28/01:00am 11.5 11.5 11.3 99 0.1 SSE 2 6 1 3 1013.7 1013.4 0.0
28/12:30am 12.0 12.1 11.5 97 0.3 S 2 6 1 3 1013.6 1013.3 0.0
28/12:00am 12.3 12.7 11.4 94 0.5 CALM 0 0 0 0 1013.5 1013.2 0.0
 
Date/Time
EDT
Temp
°C
App
Temp
°C
Dew
Point
°C
Rel
Hum
%
Delta-T
°C
Wind Press
QNH
hPa
Press
MSL
hPa
Rain since
9am
mm
Dir  Spd
km/h
Gust
km/h
Spd
kts
Gust
kts
27/11:30pm 13.1 13.6 11.5 90 0.9 CALM 0 0 0 0 1013.8 1013.5 0.0
27/11:00pm 13.6 14.1 11.7 88 1.0 CALM 0 0 0 0 1014.0 1013.7 0.0
27/10:30pm 14.1 14.5 11.4 84 1.4 CALM 0 0 0 0 1014.0 1013.7 0.0
27/10:00pm 14.6 15.1 11.6 82 1.6 CALM 0 0 0 0 1013.9 1013.6 0.0
27/09:30pm 14.8 15.2 11.4 80 1.8 CALM 0 0 0 0 1013.6 1013.3 0.0
27/09:00pm 15.1 14.3 11.1 77 2.1 SSW 6 7 3 4 1013.4 1013.1 0.0
27/08:30pm 15.7 14.8 10.7 72 2.7 SSW 6 7 3 4 1013.3 1013.0 0.0
27/08:00pm 16.4 15.3 10.5 68 3.1 SSW 7 9 4 5 1013.1 1012.8 0.0
27/07:30pm 17.4 15.9 10.5 64 3.7 SSW 9 13 5 7 1012.9 1012.6 0.0
27/07:00pm 17.8 15.9 10.4 62 4.0 SSW 11 17 6 9 1012.8 1012.5 0.0
27/06:30pm 18.5 17.1 10.8 61 4.2 SW 9 13 5 7 1012.5 1012.2 0.0
27/06:00pm 18.7 16.7 10.3 58 4.5 SSW 11 17 6 9 1012.4 1012.1 0.0
27/05:30pm 18.4 16.1 10.3 59 4.3 SSW 13 19 7 10 1012.3 1012.0 0.0
27/05:00pm 18.4 16.2 10.8 61 4.1 SSW 13 22 7 12 1012.1 1011.9 0.0
27/04:30pm 18.6 16.4 10.9 61 4.2 SSW 13 19 7 10 1012.1 1011.9 0.0
27/04:00pm 18.7 16.5 10.8 60 4.3 SW 13 20 7 11 1012.1 1011.9 0.0
27/03:30pm 19.7 17.9 10.7 56 4.9 SW 11 19 6 10 1012.3 1012.0 0.0
27/03:00pm 19.5 17.5 10.0 54 5.1 WSW 11 17 6 9 1012.5 1012.2 0.0
27/02:30pm 19.5 19.2 10.2 55 5.0 NNW 2 7 1 4 1012.7 1012.4 0.0
27/02:00pm 18.6 17.5 9.9 57 4.6 WNW 6 11 3 6 1013.0 1012.7 0.0
27/01:30pm 18.2 17.1 10.1 59 4.3 WNW 6 13 3 7 1013.0 1012.7 0.0
27/01:00pm 18.0 16.8 9.6 58 4.4 N 6 13 3 7 1013.3 1013.0 0.0
27/12:30pm 17.3 16.5 9.7 61 4.0 WNW 4 9 2 5 1013.5 1013.2 0.0
27/12:00pm 17.0 15.3 9.7 62 3.8 WSW 9 15 5 8 1013.7 1013.4 0.0
27/11:30am 16.9 15.6 10.1 64 3.6 W 7 11 4 6 1013.8 1013.5 0.0
27/11:00am 15.5 14.2 9.2 66 3.2 SSW 6 11 3 6 1013.7 1013.4 0.0
27/10:30am 14.7 13.5 9.5 71 2.7 SSW 6 9 3 5 1013.9 1013.6 0.0
27/10:00am 13.2 12.8 9.6 79 1.8 SSE 2 7 1 4 1014.0 1013.7 0.0
27/09:30am 11.8 11.5 10.0 89 0.9 SSE 2 7 1 4 1013.6 1013.3 0.0
27/09:00am 10.2 9.1 9.9 98 0.2 S 6 7 3 4 1013.5 1013.2 0.2
27/08:30am 9.2 8.3 9.1 99 0.0 SSW 4 6 2 3 1013.5 1013.2 0.2
27/08:00am 8.8 8.1 8.7 99 0.0 SSW 2 6 1 3 1013.4 1013.1 0.2
27/07:30am 9.1 8.5 8.8 98 0.1 SSW 2 6 1 3 1013.5 1013.2 0.2
27/07:00am 8.9 8.6 8.8 99 0.0 CALM 0 0 0 0 1012.9 1012.6 0.2
27/06:30am 9.2 8.9 8.7 97 0.2 CALM 0 0 0 0 1012.5 1012.2 0.2
27/06:00am 9.5 8.8 8.6 94 0.4 SSW 2 6 1 3 1012.9 1012.6 0.2
27/05:30am 10.1 9.9 9.0 93 0.5 CALM 0 0 0 0 1012.6 1012.3 0.2
27/05:00am 10.5 10.1 8.4 87 1.0 CALM 0 0 0 0 1012.9 1012.6 0.2
27/04:30am 11.0 9.6 8.8 86 1.1 SSW 6 7 3 4 1013.1 1012.8 0.2
27/04:00am 11.4 9.9 8.6 83 1.4 SSW 6 6 3 3 1013.1 1012.8 0.2
27/03:30am 11.3 9.9 8.9 85 1.2 SSW 6 7 3 4 1013.3 1013.0 0.2
27/03:00am 11.2 9.8 8.9 86 1.1 SSW 6 7 3 4 1013.6 1013.3 0.2
27/02:30am 11.5 10.1 8.9 84 1.3 SSW 6 7 3 4 1013.9 1013.6 0.2
27/02:00am 11.4 10.0 9.0 85 1.2 SSW 6 9 3 5 1014.1 1013.8 0.2
27/01:30am 11.5 10.2 9.1 85 1.2 SSW 6 7 3 4 1014.4 1014.1 0.2
27/01:00am 11.7 10.1 8.6 81 1.5 S 7 9 4 5 1014.3 1014.0 0.2
27/12:30am 12.0 10.5 8.5 79 1.7 SSW 6 9 3 5 1014.5 1014.2 0.2
27/12:00am 12.3 10.7 8.2 76 2.0 SSW 6 7 3 4 1014.8 1014.5 0.2
 
Date/Time
EDT
Temp
°C
App
Temp
°C
Dew
Point
°C
Rel
Hum
%
Delta-T
°C
Wind Press
QNH
hPa
Press
MSL
hPa
Rain since
9am
mm
Dir  Spd
km/h
Gust
km/h
Spd
kts
Gust
kts
26/11:30pm 12.5 10.6 7.6 72 2.4 SSW 7 11 4 6 1014.6 1014.3 0.2
26/11:00pm 13.2 10.9 7.6 69 2.7 SSW 9 13 5 7 1015.0 1014.7 0.2
26/10:30pm 13.5 11.2 7.5 67 2.9 S 9 13 5 7 1015.1 1014.8 0.2
26/10:00pm 14.0 11.7 7.5 65 3.2 S 9 15 5 8 1014.9 1014.6 0.2
26/09:30pm 14.5 12.3 7.8 64 3.3 S 9 17 5 9 1014.9 1014.6 0.2
26/09:00pm 14.8 12.3 8.1 64 3.4 S 11 22 6 12 1014.3 1014.0 0.2
26/08:30pm 15.5 12.2 8.0 61 3.8 S 15 24 8 13 1014.0 1013.7 0.2
26/08:00pm 16.1 14.2 7.6 57 4.3 SE 7 15 4 8 1013.7 1013.4 0.2
26/07:30pm 17.1 13.4 8.0 55 4.6 SSW 17 26 9 14 1013.3 1013.0 0.2
26/07:00pm 17.7 14.4 8.0 53 5.0 SSW 15 26 8 14 1013.1 1012.8 0.2
26/06:30pm 18.2 14.9 7.9 51 5.3 S 15 24 8 13 1013.2 1012.9 0.2
26/06:00pm 18.5 14.7 7.6 49 5.6 S 17 28 9 15 1013.2 1012.9 0.2
26/05:30pm 19.0 15.3 7.8 48 5.7 S 17 35 9 19 1013.0 1012.7 0.2
26/05:00pm 19.7 16.5 6.8 43 6.5 S 13 30 7 16 1013.0 1012.7 0.2
26/04:30pm 19.8 17.1 7.2 44 6.4 SSE 11 20 6 11 1013.2 1012.9 0.2
26/04:00pm 20.3 17.0 6.6 41 6.9 S 13 24 7 13 1013.2 1012.9 0.2
26/03:30pm 20.0 16.1 7.1 43 6.6 S 17 26 9 14 1013.6 1013.3 0.2
26/03:00pm 20.6 17.4 8.3 45 6.4 SSW 15 28 8 15 1013.9 1013.6 0.2
26/02:30pm 18.3 14.5 7.4 49 5.5 SSW 17 28 9 15 1014.0 1013.7 0.2
26/02:00pm 17.7 14.5 8.3 54 4.8 SW 15 22 8 12 1014.5 1014.2 0.2
26/01:30pm 17.4 14.3 8.8 57 4.5 SW 15 22 8 12 1014.9 1014.6 0.2
26/01:00pm 17.0 13.9 8.7 58 4.3 WSW 15 24 8 13 1015.1 1014.8 0.2
26/12:30pm 17.4 14.4 7.7 53 4.9 SW 13 17 7 9 1015.2 1014.9 0.2
26/12:00pm 17.0 14.5 8.2 56 4.5 SW 11 19 6 10 1015.4 1015.1 0.2
26/11:30am 15.5 14.4 10.1 70 2.8 W 6 9 3 5 1015.5 1015.2 0.2
26/11:00am 14.6 13.7 10.8 78 2.0 WNW 6 7 3 4 1015.4 1015.1 0.2
26/10:30am 13.6 13.0 11.7 88 1.0 W 6 7 3 4 1015.3 1015.0 0.2
26/10:00am 13.2 12.9 12.7 97 0.3 W 6 7 3 4 1015.1 1014.8 0.0
26/09:30am 13.3 12.6 11.9 91 0.8 NW 7 13 4 7 1015.0 1014.7 0.0
26/09:00am 12.9 12.7 11.8 93 0.6 SSW 4 11 2 6 1014.7 1014.4 0.8
26/08:30am 13.6 12.1 9.3 75 2.2 WSW 7 11 4 6 1014.5 1014.2 0.8
26/08:00am 13.5 12.0 9.2 75 2.2 WNW 7 11 4 6 1014.0 1013.7 0.8
26/07:30am 13.1 13.1 11.3 89 1.0 WSW 2 7 1 4 1013.5 1013.2 0.8
26/07:00am 12.9 13.4 11.5 91 0.7 CALM 0 0 0 0 1013.1 1012.8 0.8
26/06:30am 13.1 12.6 10.6 85 1.3 WSW 4 7 2 4 1012.9 1012.6 0.8
26/06:00am 13.3 13.4 10.3 82 1.6 CALM 0 6 0 3 1012.7 1012.4 0.8
26/05:30am 13.3 13.1 10.3 82 1.6 WNW 2 6 1 3 1012.4 1012.1 0.8
26/05:00am 13.0 12.5 10.9 87 1.1 WSW 4 7 2 4 1012.0 1011.8 0.8
26/04:30am 13.2 11.5 10.0 81 1.7 W 9 11 5 6 1011.8 1011.6 0.8
26/04:00am 13.1 11.8 9.9 81 1.6 WSW 7 15 4 8 1012.0 1011.8 0.8
26/03:30am 13.4 12.4 10.4 82 1.6 WSW 6 11 3 6 1012.3 1012.0 0.8
26/03:00am 13.4 11.4 10.0 80 1.8 W 11 17 6 9 1012.4 1012.1 0.8
26/02:30am 13.7 11.2 9.7 77 2.1 W 13 20 7 11 1012.5 1012.2 0.8
26/02:00am 14.0 12.4 8.8 71 2.6 WSW 7 11 4 6 1012.5 1012.2 0.8
26/01:30am 14.6 12.5 9.8 73 2.5 SW 11 22 6 12 1012.7 1012.4 0.6
26/01:00am 14.8 13.2 10.2 74 2.4 WSW 9 13 5 7 1012.8 1012.5 0.6
26/12:30am 14.6 13.2 10.8 78 2.0 WSW 9 15 5 8 1012.8 1012.5 0.6
26/12:00am 14.6 12.4 10.8 78 2.0 SW 13 20 7 11 1012.8 1012.5 0.6
 
Date/Time
EDT
Temp
°C
App
Temp
°C
Dew
Point
°C
Rel
Hum
%
Delta-T
°C
Wind Press
QNH
hPa
Press
MSL
hPa
Rain since
9am
mm
Dir  Spd
km/h
Gust
km/h
Spd
kts
Gust
kts
25/11:30pm 14.6 13.5 13.0 90 0.9 SSW 11 17 6 9 1012.8 1012.5 0.6
25/11:00pm 14.3 13.9 14.1 99 0.1 SW 9 15 5 8 1012.7 1012.4 0.6
25/10:30pm 14.4 14.7 14.4 100 0.0 SSW 6 11 3 6 1012.7 1012.4 0.6
25/10:00pm 14.3 13.2 14.3 100 0.0 SSW 13 22 7 12 1012.7 1012.4 0.6
25/09:30pm 14.8 14.6 14.8 100 0.0 SW 9 19 5 10 1012.4 1012.1 0.0
25/09:00pm 15.3 13.3 15.0 98 0.2 SSW 19 33 10 18 1011.7 1011.5 0.0
25/08:30pm 16.4 13.6 14.2 87 1.3 SSW 22 35 12 19 1011.2 1011.0 0.0
25/08:00pm 17.5 14.4 13.4 77 2.3 SSW 22 41 12 22 1010.4 1010.2 0.0
25/07:30pm 19.3 16.1 11.1 59 4.5 SW 19 39 10 21 1009.6 1009.4 0.0
25/07:00pm 19.5 15.4 11.5 60 4.4 SW 24 39 13 21 1009.4 1009.2 0.0

Latest Capital City Observations: Canberra | Sydney | Melbourne | Brisbane | Adelaide | Perth | Hobart | Darwin

Other formats

Comma delimited format used in spreadsheet applications
http://www.bom.gov.au/fwo/IDV60901/IDV60901.95874.axf

JavaScript Object Notation format (JSON) in row-major order
http://www.bom.gov.au/fwo/IDV60901/IDV60901.95874.json

Data quality

Most of these data are generated automatically and are frequently updated. Quality checks on data are not normally performed. It is possible for incorrect values to appear. Refer to information at About Latest Weather Observations and please check the disclaimer before using these data.